sensor_id;sensor_type;location;lat;lon;timestamp;P1;durP1;ratioP1;P2;durP2;ratioP2
61897;SDS011;47850;50.274;18.908;2022-08-21T00:02:15;23.40;;;15.00;;
61897;SDS011;47850;50.274;18.908;2022-08-21T00:04:44;27.00;;;16.40;;
61897;SDS011;47850;50.274;18.908;2022-08-21T00:07:11;29.30;;;17.90;;
61897;SDS011;47850;50.274;18.908;2022-08-21T00:09:38;32.60;;;17.70;;
61897;SDS011;47850;50.274;18.908;2022-08-21T00:12:04;31.90;;;18.40;;
61897;SDS011;47850;50.274;18.908;2022-08-21T00:14:32;28.60;;;18.00;;
61897;SDS011;47850;50.274;18.908;2022-08-21T00:16:59;28.70;;;17.10;;
61897;SDS011;47850;50.274;18.908;2022-08-21T00:19:27;25.30;;;17.60;;
61897;SDS011;47850;50.274;18.908;2022-08-21T00:21:54;27.00;;;17.80;;
61897;SDS011;47850;50.274;18.908;2022-08-21T00:24:21;25.20;;;18.00;;
61897;SDS011;47850;50.274;18.908;2022-08-21T00:26:50;29.50;;;18.10;;
61897;SDS011;47850;50.274;18.908;2022-08-21T00:29:17;25.40;;;15.50;;
61897;SDS011;47850;50.274;18.908;2022-08-21T00:31:44;26.20;;;16.90;;
61897;SDS011;47850;50.274;18.908;2022-08-21T00:34:12;22.30;;;14.30;;
61897;SDS011;47850;50.274;18.908;2022-08-21T00:36:39;23.00;;;15.30;;
61897;SDS011;47850;50.274;18.908;2022-08-21T00:39:07;30.60;;;16.20;;
61897;SDS011;47850;50.274;18.908;2022-08-21T00:41:35;23.40;;;16.10;;
61897;SDS011;47850;50.274;18.908;2022-08-21T00:44:04;25.50;;;15.70;;
61897;SDS011;47850;50.274;18.908;2022-08-21T00:46:36;25.20;;;16.70;;
61897;SDS011;47850;50.274;18.908;2022-08-21T00:49:04;22.70;;;15.40;;
61897;SDS011;47850;50.274;18.908;2022-08-21T00:51:34;22.40;;;14.70;;
61897;SDS011;47850;50.274;18.908;2022-08-21T00:54:04;24.60;;;15.30;;
61897;SDS011;47850;50.274;18.908;2022-08-21T00:56:32;24.00;;;14.80;;
61897;SDS011;47850;50.274;18.908;2022-08-21T00:58:59;22.60;;;14.90;;
61897;SDS011;47850;50.274;18.908;2022-08-21T01:01:27;24.10;;;13.90;;
61897;SDS011;47850;50.274;18.908;2022-08-21T01:03:54;20.20;;;13.80;;
61897;SDS011;47850;50.274;18.908;2022-08-21T01:06:21;22.80;;;13.20;;
61897;SDS011;47850;50.274;18.908;2022-08-21T01:08:47;21.30;;;13.50;;
61897;SDS011;47850;50.274;18.908;2022-08-21T01:11:14;20.20;;;13.20;;
61897;SDS011;47850;50.274;18.908;2022-08-21T01:13:42;20.90;;;12.10;;
61897;SDS011;47850;50.274;18.908;2022-08-21T01:16:13;20.70;;;12.90;;
61897;SDS011;47850;50.274;18.908;2022-08-21T01:18:43;19.20;;;12.50;;
61897;SDS011;47850;50.274;18.908;2022-08-21T01:21:12;20.10;;;13.10;;
61897;SDS011;47850;50.274;18.908;2022-08-21T01:23:46;21.70;;;13.60;;
61897;SDS011;47850;50.274;18.908;2022-08-21T01:26:16;22.70;;;13.70;;
61897;SDS011;47850;50.274;18.908;2022-08-21T01:31:15;19.10;;;12.60;;
61897;SDS011;47850;50.274;18.908;2022-08-21T01:33:46;18.30;;;11.90;;
61897;SDS011;47850;50.274;18.908;2022-08-21T01:36:12;16.90;;;11.60;;
61897;SDS011;47850;50.274;18.908;2022-08-21T01:38:39;23.80;;;11.80;;
61897;SDS011;47850;50.274;18.908;2022-08-21T01:41:06;20.10;;;12.10;;
61897;SDS011;47850;50.274;18.908;2022-08-21T01:43:33;20.00;;;12.70;;
61897;SDS011;47850;50.274;18.908;2022-08-21T01:45:59;20.00;;;11.80;;
61897;SDS011;47850;50.274;18.908;2022-08-21T01:48:28;18.20;;;11.60;;
61897;SDS011;47850;50.274;18.908;2022-08-21T01:50:54;17.20;;;11.00;;
61897;SDS011;47850;50.274;18.908;2022-08-21T01:53:21;21.10;;;11.30;;
61897;SDS011;47850;50.274;18.908;2022-08-21T01:55:47;15.40;;;11.20;;
61897;SDS011;47850;50.274;18.908;2022-08-21T01:58:14;18.90;;;11.70;;
61897;SDS011;47850;50.274;18.908;2022-08-21T02:00:40;16.50;;;10.70;;
61897;SDS011;47850;50.274;18.908;2022-08-21T02:03:07;16.30;;;11.60;;
61897;SDS011;47850;50.274;18.908;2022-08-21T02:05:34;17.50;;;11.00;;
61897;SDS011;47850;50.274;18.908;2022-08-21T02:08:01;17.50;;;10.50;;
61897;SDS011;47850;50.274;18.908;2022-08-21T02:10:30;15.70;;;10.60;;
61897;SDS011;47850;50.274;18.908;2022-08-21T02:12:58;14.60;;;10.80;;
61897;SDS011;47850;50.274;18.908;2022-08-21T02:15:27;15.10;;;10.70;;
61897;SDS011;47850;50.274;18.908;2022-08-21T02:17:56;17.20;;;10.90;;
61897;SDS011;47850;50.274;18.908;2022-08-21T02:20:34;18.20;;;11.40;;
61897;SDS011;47850;50.274;18.908;2022-08-21T02:23:06;16.70;;;11.90;;
61897;SDS011;47850;50.274;18.908;2022-08-21T02:25:35;20.00;;;12.60;;
61897;SDS011;47850;50.274;18.908;2022-08-21T02:28:04;20.40;;;12.40;;
61897;SDS011;47850;50.274;18.908;2022-08-21T02:30:44;24.10;;;16.50;;
61897;SDS011;47850;50.274;18.908;2022-08-21T02:33:13;26.70;;;15.10;;
61897;SDS011;47850;50.274;18.908;2022-08-21T02:35:42;22.90;;;13.30;;
61897;SDS011;47850;50.274;18.908;2022-08-21T02:38:12;23.10;;;14.70;;
61897;SDS011;47850;50.274;18.908;2022-08-21T02:40:41;24.50;;;13.80;;
61897;SDS011;47850;50.274;18.908;2022-08-21T02:43:10;20.80;;;13.10;;
61897;SDS011;47850;50.274;18.908;2022-08-21T02:45:38;19.40;;;11.90;;
61897;SDS011;47850;50.274;18.908;2022-08-21T02:48:09;20.50;;;11.90;;
61897;SDS011;47850;50.274;18.908;2022-08-21T02:50:48;19.10;;;12.90;;
61897;SDS011;47850;50.274;18.908;2022-08-21T02:53:18;19.10;;;12.60;;
61897;SDS011;47850;50.274;18.908;2022-08-21T02:55:47;19.10;;;12.90;;
61897;SDS011;47850;50.274;18.908;2022-08-21T02:58:17;21.40;;;13.10;;
61897;SDS011;47850;50.274;18.908;2022-08-21T03:00:47;22.60;;;13.00;;
61897;SDS011;47850;50.274;18.908;2022-08-21T03:03:13;24.30;;;13.90;;
61897;SDS011;47850;50.274;18.908;2022-08-21T03:05:40;23.60;;;13.40;;
61897;SDS011;47850;50.274;18.908;2022-08-21T03:08:10;24.20;;;13.00;;
61897;SDS011;47850;50.274;18.908;2022-08-21T03:10:44;21.70;;;14.30;;
61897;SDS011;47850;50.274;18.908;2022-08-21T03:13:13;24.80;;;13.20;;
61897;SDS011;47850;50.274;18.908;2022-08-21T03:15:40;19.70;;;13.30;;
61897;SDS011;47850;50.274;18.908;2022-08-21T03:18:08;22.50;;;14.30;;
61897;SDS011;47850;50.274;18.908;2022-08-21T03:20:35;19.60;;;13.70;;
61897;SDS011;47850;50.274;18.908;2022-08-21T03:23:04;21.60;;;13.80;;
61897;SDS011;47850;50.274;18.908;2022-08-21T03:25:32;23.80;;;14.10;;
61897;SDS011;47850;50.274;18.908;2022-08-21T03:28:00;26.00;;;14.70;;
61897;SDS011;47850;50.274;18.908;2022-08-21T03:30:29;24.20;;;13.70;;
61897;SDS011;47850;50.274;18.908;2022-08-21T03:33:00;23.50;;;14.60;;
61897;SDS011;47850;50.274;18.908;2022-08-21T03:37:54;23.20;;;13.90;;
61897;SDS011;47850;50.274;18.908;2022-08-21T03:40:22;23.40;;;14.60;;
61897;SDS011;47850;50.274;18.908;2022-08-21T03:42:50;25.90;;;15.60;;
61897;SDS011;47850;50.274;18.908;2022-08-21T03:45:18;28.20;;;15.30;;
61897;SDS011;47850;50.274;18.908;2022-08-21T03:47:55;25.10;;;14.80;;
61897;SDS011;47850;50.274;18.908;2022-08-21T03:50:26;23.90;;;14.70;;
61897;SDS011;47850;50.274;18.908;2022-08-21T03:52:55;25.90;;;15.50;;
61897;SDS011;47850;50.274;18.908;2022-08-21T03:55:22;24.50;;;15.10;;
61897;SDS011;47850;50.274;18.908;2022-08-21T03:57:49;27.90;;;15.30;;
61897;SDS011;47850;50.274;18.908;2022-08-21T04:00:17;28.70;;;15.70;;
61897;SDS011;47850;50.274;18.908;2022-08-21T04:02:45;28.20;;;16.40;;
61897;SDS011;47850;50.274;18.908;2022-08-21T04:05:12;30.30;;;17.60;;
61897;SDS011;47850;50.274;18.908;2022-08-21T04:07:40;30.30;;;17.20;;
61897;SDS011;47850;50.274;18.908;2022-08-21T04:10:07;30.50;;;17.60;;
61897;SDS011;47850;50.274;18.908;2022-08-21T04:12:34;32.20;;;17.20;;
61897;SDS011;47850;50.274;18.908;2022-08-21T04:15:00;31.00;;;17.20;;
61897;SDS011;47850;50.274;18.908;2022-08-21T04:17:28;29.00;;;17.50;;
61897;SDS011;47850;50.274;18.908;2022-08-21T04:19:54;28.50;;;17.20;;
61897;SDS011;47850;50.274;18.908;2022-08-21T04:22:21;32.30;;;17.00;;
61897;SDS011;47850;50.274;18.908;2022-08-21T04:24:48;30.30;;;17.80;;
61897;SDS011;47850;50.274;18.908;2022-08-21T04:27:16;31.50;;;18.90;;
61897;SDS011;47850;50.274;18.908;2022-08-21T04:29:42;30.00;;;18.20;;
61897;SDS011;47850;50.274;18.908;2022-08-21T04:32:09;34.20;;;18.30;;
61897;SDS011;47850;50.274;18.908;2022-08-21T04:34:35;33.80;;;18.80;;
61897;SDS011;47850;50.274;18.908;2022-08-21T04:37:02;33.70;;;19.60;;
61897;SDS011;47850;50.274;18.908;2022-08-21T04:39:29;35.90;;;19.50;;
61897;SDS011;47850;50.274;18.908;2022-08-21T04:41:56;36.30;;;19.10;;
61897;SDS011;47850;50.274;18.908;2022-08-21T04:44:22;34.50;;;19.50;;
61897;SDS011;47850;50.274;18.908;2022-08-21T04:46:49;33.10;;;19.40;;
61897;SDS011;47850;50.274;18.908;2022-08-21T04:49:16;37.00;;;20.10;;
61897;SDS011;47850;50.274;18.908;2022-08-21T04:51:42;31.10;;;19.20;;
61897;SDS011;47850;50.274;18.908;2022-08-21T04:54:14;32.50;;;19.70;;
61897;SDS011;47850;50.274;18.908;2022-08-21T04:56:47;38.00;;;20.60;;
61897;SDS011;47850;50.274;18.908;2022-08-21T04:59:24;39.30;;;20.20;;
61897;SDS011;47850;50.274;18.908;2022-08-21T05:01:57;34.50;;;20.90;;
61897;SDS011;47850;50.274;18.908;2022-08-21T05:04:28;36.10;;;19.60;;
61897;SDS011;47850;50.274;18.908;2022-08-21T05:06:59;36.00;;;19.80;;
61897;SDS011;47850;50.274;18.908;2022-08-21T05:09:29;34.10;;;19.30;;
61897;SDS011;47850;50.274;18.908;2022-08-21T05:11:57;37.00;;;19.70;;
61897;SDS011;47850;50.274;18.908;2022-08-21T05:14:24;36.40;;;18.70;;
61897;SDS011;47850;50.274;18.908;2022-08-21T05:16:53;34.30;;;19.70;;
61897;SDS011;47850;50.274;18.908;2022-08-21T05:19:19;40.10;;;19.80;;
61897;SDS011;47850;50.274;18.908;2022-08-21T05:21:46;35.50;;;21.40;;
61897;SDS011;47850;50.274;18.908;2022-08-21T05:24:16;39.40;;;20.80;;
61897;SDS011;47850;50.274;18.908;2022-08-21T05:26:44;33.00;;;20.80;;
61897;SDS011;47850;50.274;18.908;2022-08-21T05:29:11;33.30;;;19.60;;
61897;SDS011;47850;50.274;18.908;2022-08-21T05:31:38;31.30;;;19.00;;
61897;SDS011;47850;50.274;18.908;2022-08-21T05:34:05;31.50;;;19.20;;
61897;SDS011;47850;50.274;18.908;2022-08-21T05:36:32;33.60;;;19.40;;
61897;SDS011;47850;50.274;18.908;2022-08-21T05:38:59;36.00;;;19.80;;
61897;SDS011;47850;50.274;18.908;2022-08-21T05:41:25;33.70;;;19.50;;
61897;SDS011;47850;50.274;18.908;2022-08-21T05:43:52;36.90;;;20.00;;
61897;SDS011;47850;50.274;18.908;2022-08-21T05:46:18;29.60;;;18.10;;
61897;SDS011;47850;50.274;18.908;2022-08-21T05:48:45;31.90;;;17.80;;
61897;SDS011;47850;50.274;18.908;2022-08-21T05:51:13;36.90;;;19.00;;
61897;SDS011;47850;50.274;18.908;2022-08-21T05:53:41;34.50;;;18.40;;
61897;SDS011;47850;50.274;18.908;2022-08-21T05:56:09;36.80;;;20.00;;
61897;SDS011;47850;50.274;18.908;2022-08-21T05:58:37;34.60;;;20.00;;
61897;SDS011;47850;50.274;18.908;2022-08-21T06:01:04;38.80;;;20.90;;
61897;SDS011;47850;50.274;18.908;2022-08-21T06:03:33;35.60;;;19.30;;
61897;SDS011;47850;50.274;18.908;2022-08-21T06:06:02;57.00;;;22.60;;
61897;SDS011;47850;50.274;18.908;2022-08-21T06:08:29;47.10;;;24.20;;
61897;SDS011;47850;50.274;18.908;2022-08-21T06:10:57;41.40;;;23.20;;
61897;SDS011;47850;50.274;18.908;2022-08-21T06:13:26;43.40;;;22.80;;
61897;SDS011;47850;50.274;18.908;2022-08-21T06:16:03;38.20;;;21.60;;
61897;SDS011;47850;50.274;18.908;2022-08-21T06:18:35;31.70;;;17.60;;
61897;SDS011;47850;50.274;18.908;2022-08-21T06:21:03;17.20;;;9.70;;
61897;SDS011;47850;50.274;18.908;2022-08-21T06:23:30;12.40;;;7.60;;
61897;SDS011;47850;50.274;18.908;2022-08-21T06:25:57;9.20;;;6.30;;
61897;SDS011;47850;50.274;18.908;2022-08-21T06:28:23;7.50;;;4.00;;
61897;SDS011;47850;50.274;18.908;2022-08-21T06:30:50;6.10;;;4.10;;
61897;SDS011;47850;50.274;18.908;2022-08-21T06:33:16;5.30;;;3.60;;
61897;SDS011;47850;50.274;18.908;2022-08-21T06:35:43;4.60;;;3.30;;
61897;SDS011;47850;50.274;18.908;2022-08-21T06:38:10;4.30;;;3.20;;
61897;SDS011;47850;50.274;18.908;2022-08-21T06:40:36;8.60;;;3.30;;
61897;SDS011;47850;50.274;18.908;2022-08-21T06:43:22;3.40;;;2.40;;
61897;SDS011;47850;50.274;18.908;2022-08-21T06:45:48;2.80;;;1.80;;
61897;SDS011;47850;50.274;18.908;2022-08-21T06:48:15;4.00;;;1.60;;
61897;SDS011;47850;50.274;18.908;2022-08-21T06:50:41;3.20;;;1.90;;
61897;SDS011;47850;50.274;18.908;2022-08-21T06:53:12;2.70;;;1.30;;
61897;SDS011;47850;50.274;18.908;2022-08-21T06:55:40;3.00;;;1.60;;
61897;SDS011;47850;50.274;18.908;2022-08-21T06:58:08;2.60;;;1.10;;
61897;SDS011;47850;50.274;18.908;2022-08-21T07:00:38;2.50;;;1.20;;
61897;SDS011;47850;50.274;18.908;2022-08-21T07:03:07;2.00;;;0.90;;
61897;SDS011;47850;50.274;18.908;2022-08-21T07:05:33;2.30;;;0.90;;
61897;SDS011;47850;50.274;18.908;2022-08-21T07:08:00;1.10;;;0.50;;
61897;SDS011;47850;50.274;18.908;2022-08-21T07:10:26;0.80;;;0.60;;
61897;SDS011;47850;50.274;18.908;2022-08-21T07:12:54;1.20;;;0.60;;
61897;SDS011;47850;50.274;18.908;2022-08-21T07:15:21;0.70;;;0.50;;
61897;SDS011;47850;50.274;18.908;2022-08-21T07:17:47;2.90;;;0.50;;
61897;SDS011;47850;50.274;18.908;2022-08-21T07:20:14;4.00;;;0.50;;
61897;SDS011;47850;50.274;18.908;2022-08-21T07:22:40;3.10;;;0.60;;
61897;SDS011;47850;50.274;18.908;2022-08-21T07:25:07;2.60;;;0.60;;
61897;SDS011;47850;50.274;18.908;2022-08-21T07:27:34;3.30;;;1.30;;
61897;SDS011;47850;50.274;18.908;2022-08-21T07:30:01;6.80;;;2.40;;
61897;SDS011;47850;50.274;18.908;2022-08-21T07:32:27;8.60;;;3.30;;
61897;SDS011;47850;50.274;18.908;2022-08-21T07:34:54;11.10;;;4.00;;
61897;SDS011;47850;50.274;18.908;2022-08-21T07:37:21;5.20;;;2.30;;
61897;SDS011;47850;50.274;18.908;2022-08-21T07:39:47;4.20;;;1.90;;
61897;SDS011;47850;50.274;18.908;2022-08-21T07:42:15;2.60;;;1.30;;
61897;SDS011;47850;50.274;18.908;2022-08-21T07:44:43;6.00;;;1.20;;
61897;SDS011;47850;50.274;18.908;2022-08-21T07:47:09;2.90;;;1.00;;
61897;SDS011;47850;50.274;18.908;2022-08-21T07:49:36;2.80;;;0.80;;
61897;SDS011;47850;50.274;18.908;2022-08-21T07:52:03;3.40;;;0.80;;
61897;SDS011;47850;50.274;18.908;2022-08-21T07:54:30;2.80;;;0.70;;
61897;SDS011;47850;50.274;18.908;2022-08-21T07:56:56;1.40;;;0.50;;
61897;SDS011;47850;50.274;18.908;2022-08-21T07:59:23;1.30;;;0.40;;
61897;SDS011;47850;50.274;18.908;2022-08-21T08:01:50;1.00;;;0.70;;
61897;SDS011;47850;50.274;18.908;2022-08-21T08:04:17;3.30;;;0.60;;
61897;SDS011;47850;50.274;18.908;2022-08-21T08:06:43;1.40;;;0.60;;
61897;SDS011;47850;50.274;18.908;2022-08-21T08:09:10;0.70;;;0.40;;
61897;SDS011;47850;50.274;18.908;2022-08-21T08:11:37;2.90;;;0.60;;
61897;SDS011;47850;50.274;18.908;2022-08-21T08:14:07;1.90;;;0.60;;
61897;SDS011;47850;50.274;18.908;2022-08-21T08:16:33;1.40;;;0.60;;
61897;SDS011;47850;50.274;18.908;2022-08-21T08:19:00;1.30;;;0.60;;
61897;SDS011;47850;50.274;18.908;2022-08-21T08:21:27;1.60;;;0.60;;
61897;SDS011;47850;50.274;18.908;2022-08-21T08:23:53;3.30;;;1.10;;
61897;SDS011;47850;50.274;18.908;2022-08-21T08:26:20;2.60;;;1.20;;
61897;SDS011;47850;50.274;18.908;2022-08-21T08:28:46;3.10;;;1.10;;
61897;SDS011;47850;50.274;18.908;2022-08-21T08:31:13;2.10;;;1.00;;
61897;SDS011;47850;50.274;18.908;2022-08-21T08:33:40;1.30;;;0.50;;
61897;SDS011;47850;50.274;18.908;2022-08-21T08:36:12;2.50;;;0.60;;
61897;SDS011;47850;50.274;18.908;2022-08-21T08:38:46;1.50;;;0.50;;
61897;SDS011;47850;50.274;18.908;2022-08-21T08:41:15;2.50;;;0.50;;
61897;SDS011;47850;50.274;18.908;2022-08-21T08:43:49;1.20;;;0.80;;
61897;SDS011;47850;50.274;18.908;2022-08-21T08:46:19;1.80;;;0.70;;
61897;SDS011;47850;50.274;18.908;2022-08-21T08:48:57;1.70;;;0.80;;
61897;SDS011;47850;50.274;18.908;2022-08-21T08:54:10;1.10;;;0.40;;
61897;SDS011;47850;50.274;18.908;2022-08-21T08:56:41;3.40;;;0.60;;
61897;SDS011;47850;50.274;18.908;2022-08-21T08:59:09;0.70;;;0.50;;
61897;SDS011;47850;50.274;18.908;2022-08-21T09:01:45;2.30;;;0.60;;
61897;SDS011;47850;50.274;18.908;2022-08-21T09:04:12;1.30;;;0.60;;
61897;SDS011;47850;50.274;18.908;2022-08-21T09:09:31;1.60;;;0.80;;
61897;SDS011;47850;50.274;18.908;2022-08-21T09:12:18;2.50;;;1.00;;
61897;SDS011;47850;50.274;18.908;2022-08-21T09:25:49;2.30;;;0.90;;
61897;SDS011;47850;50.274;18.908;2022-08-21T09:28:36;1.50;;;0.70;;
61897;SDS011;47850;50.274;18.908;2022-08-21T09:31:05;4.10;;;0.90;;
61897;SDS011;47850;50.274;18.908;2022-08-21T09:33:33;3.50;;;1.40;;
61897;SDS011;47850;50.274;18.908;2022-08-21T09:36:00;1.90;;;0.80;;
61897;SDS011;47850;50.274;18.908;2022-08-21T09:38:31;1.30;;;1.10;;
61897;SDS011;47850;50.274;18.908;2022-08-21T09:41:02;2.80;;;0.80;;
61897;SDS011;47850;50.274;18.908;2022-08-21T09:43:30;3.60;;;1.30;;
61897;SDS011;47850;50.274;18.908;2022-08-21T09:46:09;3.80;;;1.10;;
61897;SDS011;47850;50.274;18.908;2022-08-21T09:48:39;2.90;;;1.80;;
61897;SDS011;47850;50.274;18.908;2022-08-21T09:51:11;6.90;;;1.30;;
61897;SDS011;47850;50.274;18.908;2022-08-21T09:53:44;2.30;;;1.00;;
61897;SDS011;47850;50.274;18.908;2022-08-21T09:56:28;2.70;;;1.40;;
61897;SDS011;47850;50.274;18.908;2022-08-21T10:01:50;4.30;;;1.40;;
61897;SDS011;47850;50.274;18.908;2022-08-21T10:04:20;1.60;;;0.90;;
61897;SDS011;47850;50.274;18.908;2022-08-21T10:07:12;3.70;;;0.90;;
61897;SDS011;47850;50.274;18.908;2022-08-21T10:09:40;2.40;;;1.00;;
61897;SDS011;47850;50.274;18.908;2022-08-21T10:14:58;1.80;;;0.90;;
61897;SDS011;47850;50.274;18.908;2022-08-21T10:20:45;2.30;;;1.00;;
61897;SDS011;47850;50.274;18.908;2022-08-21T10:29:17;1.80;;;1.00;;
61897;SDS011;47850;50.274;18.908;2022-08-21T10:34:43;1.80;;;1.00;;
61897;SDS011;47850;50.274;18.908;2022-08-21T10:37:25;1.30;;;1.00;;
61897;SDS011;47850;50.274;18.908;2022-08-21T10:45:45;2.00;;;1.10;;
61897;SDS011;47850;50.274;18.908;2022-08-21T10:48:32;1.20;;;1.10;;
61897;SDS011;47850;50.274;18.908;2022-08-21T10:56:29;1.50;;;1.20;;
61897;SDS011;47850;50.274;18.908;2022-08-21T10:59:03;1.50;;;1.20;;
61897;SDS011;47850;50.274;18.908;2022-08-21T11:04:48;1.80;;;1.10;;
61897;SDS011;47850;50.274;18.908;2022-08-21T11:07:32;1.50;;;0.90;;
61897;SDS011;47850;50.274;18.908;2022-08-21T11:12:54;1.80;;;0.90;;
61897;SDS011;47850;50.274;18.908;2022-08-21T11:15:37;3.80;;;1.10;;
61897;SDS011;47850;50.274;18.908;2022-08-21T11:18:15;2.30;;;1.30;;
61897;SDS011;47850;50.274;18.908;2022-08-21T11:20:56;1.00;;;0.90;;
61897;SDS011;47850;50.274;18.908;2022-08-21T11:23:27;3.20;;;1.20;;
61897;SDS011;47850;50.274;18.908;2022-08-21T11:26:05;1.70;;;0.90;;
61897;SDS011;47850;50.274;18.908;2022-08-21T11:28:44;2.90;;;1.10;;
61897;SDS011;47850;50.274;18.908;2022-08-21T11:33:56;2.90;;;1.30;;
61897;SDS011;47850;50.274;18.908;2022-08-21T11:39:25;1.40;;;0.80;;
61897;SDS011;47850;50.274;18.908;2022-08-21T11:42:10;2.80;;;1.30;;
61897;SDS011;47850;50.274;18.908;2022-08-21T11:44:59;1.60;;;1.10;;
61897;SDS011;47850;50.274;18.908;2022-08-21T11:50:17;2.70;;;1.00;;
61897;SDS011;47850;50.274;18.908;2022-08-21T11:52:51;1.40;;;0.90;;
61897;SDS011;47850;50.274;18.908;2022-08-21T11:55:26;3.00;;;1.00;;
61897;SDS011;47850;50.274;18.908;2022-08-21T11:58:11;1.60;;;0.90;;
61897;SDS011;47850;50.274;18.908;2022-08-21T12:01:04;1.30;;;0.90;;
61897;SDS011;47850;50.274;18.908;2022-08-21T12:06:05;1.60;;;0.80;;
61897;SDS011;47850;50.274;18.908;2022-08-21T12:08:36;1.10;;;0.90;;
61897;SDS011;47850;50.274;18.908;2022-08-21T12:16:34;1.70;;;0.80;;
61897;SDS011;47850;50.274;18.908;2022-08-21T12:19:13;1.20;;;0.70;;
61897;SDS011;47850;50.274;18.908;2022-08-21T12:21:59;2.00;;;1.00;;
61897;SDS011;47850;50.274;18.908;2022-08-21T12:24:37;1.20;;;0.70;;
61897;SDS011;47850;50.274;18.908;2022-08-21T12:27:29;1.30;;;0.70;;
61897;SDS011;47850;50.274;18.908;2022-08-21T12:30:18;1.10;;;0.90;;
61897;SDS011;47850;50.274;18.908;2022-08-21T12:33:00;1.90;;;1.00;;
61897;SDS011;47850;50.274;18.908;2022-08-21T12:35:32;1.40;;;1.00;;
61897;SDS011;47850;50.274;18.908;2022-08-21T12:41:19;1.90;;;1.40;;
61897;SDS011;47850;50.274;18.908;2022-08-21T12:43:51;2.50;;;2.00;;
61897;SDS011;47850;50.274;18.908;2022-08-21T12:46:29;1.50;;;1.40;;
61897;SDS011;47850;50.274;18.908;2022-08-21T12:49:14;1.50;;;1.20;;
61897;SDS011;47850;50.274;18.908;2022-08-21T12:51:55;1.80;;;1.50;;
61897;SDS011;47850;50.274;18.908;2022-08-21T12:54:31;1.40;;;1.30;;
61897;SDS011;47850;50.274;18.908;2022-08-21T12:57:04;3.00;;;1.90;;
61897;SDS011;47850;50.274;18.908;2022-08-21T12:59:36;1.80;;;1.70;;
61897;SDS011;47850;50.274;18.908;2022-08-21T13:02:10;4.00;;;1.90;;
61897;SDS011;47850;50.274;18.908;2022-08-21T13:04:46;2.20;;;2.00;;
61897;SDS011;47850;50.274;18.908;2022-08-21T13:07:15;3.00;;;1.90;;
61897;SDS011;47850;50.274;18.908;2022-08-21T13:09:49;4.20;;;2.30;;
61897;SDS011;47850;50.274;18.908;2022-08-21T13:12:20;1.90;;;1.70;;
61897;SDS011;47850;50.274;18.908;2022-08-21T13:14:49;3.80;;;2.10;;
61897;SDS011;47850;50.274;18.908;2022-08-21T13:17:20;2.40;;;2.00;;
61897;SDS011;47850;50.274;18.908;2022-08-21T13:20:04;3.10;;;2.20;;
61897;SDS011;47850;50.274;18.908;2022-08-21T13:22:44;2.20;;;2.00;;
61897;SDS011;47850;50.274;18.908;2022-08-21T13:25:12;3.20;;;2.20;;
61897;SDS011;47850;50.274;18.908;2022-08-21T13:27:41;1.60;;;1.40;;
61897;SDS011;47850;50.274;18.908;2022-08-21T13:32:39;2.90;;;2.10;;
61897;SDS011;47850;50.274;18.908;2022-08-21T13:35:12;3.20;;;1.90;;
61897;SDS011;47850;50.274;18.908;2022-08-21T13:37:43;2.40;;;2.10;;
61897;SDS011;47850;50.274;18.908;2022-08-21T13:40:17;2.10;;;1.70;;
61897;SDS011;47850;50.274;18.908;2022-08-21T13:42:46;2.80;;;1.70;;
61897;SDS011;47850;50.274;18.908;2022-08-21T13:45:25;2.60;;;2.10;;
61897;SDS011;47850;50.274;18.908;2022-08-21T13:47:57;2.80;;;2.10;;
61897;SDS011;47850;50.274;18.908;2022-08-21T13:50:26;3.70;;;2.50;;
61897;SDS011;47850;50.274;18.908;2022-08-21T13:52:55;3.10;;;2.00;;
61897;SDS011;47850;50.274;18.908;2022-08-21T13:55:24;2.70;;;1.90;;
61897;SDS011;47850;50.274;18.908;2022-08-21T13:58:00;3.70;;;2.60;;
61897;SDS011;47850;50.274;18.908;2022-08-21T14:00:29;3.20;;;2.70;;
61897;SDS011;47850;50.274;18.908;2022-08-21T14:03:06;5.00;;;3.10;;
61897;SDS011;47850;50.274;18.908;2022-08-21T14:05:43;5.10;;;3.30;;
61897;SDS011;47850;50.274;18.908;2022-08-21T14:08:15;4.70;;;3.40;;
61897;SDS011;47850;50.274;18.908;2022-08-21T14:10:55;3.60;;;3.10;;
61897;SDS011;47850;50.274;18.908;2022-08-21T14:15:56;4.00;;;3.10;;
61897;SDS011;47850;50.274;18.908;2022-08-21T14:18:24;3.50;;;3.00;;
61897;SDS011;47850;50.274;18.908;2022-08-21T14:21:03;4.10;;;3.20;;
61897;SDS011;47850;50.274;18.908;2022-08-21T14:23:31;4.20;;;3.40;;
61897;SDS011;47850;50.274;18.908;2022-08-21T14:26:03;4.20;;;3.60;;
61897;SDS011;47850;50.274;18.908;2022-08-21T14:28:33;5.20;;;3.60;;
61897;SDS011;47850;50.274;18.908;2022-08-21T14:31:15;3.70;;;2.90;;
61897;SDS011;47850;50.274;18.908;2022-08-21T14:33:44;3.20;;;2.50;;
61897;SDS011;47850;50.274;18.908;2022-08-21T14:36:11;3.00;;;2.30;;
61897;SDS011;47850;50.274;18.908;2022-08-21T14:38:38;3.00;;;2.70;;
61897;SDS011;47850;50.274;18.908;2022-08-21T14:41:15;3.40;;;2.70;;
61897;SDS011;47850;50.274;18.908;2022-08-21T14:43:45;4.50;;;2.60;;
61897;SDS011;47850;50.274;18.908;2022-08-21T14:46:13;3.30;;;2.30;;
61897;SDS011;47850;50.274;18.908;2022-08-21T14:48:46;3.40;;;2.70;;
61897;SDS011;47850;50.274;18.908;2022-08-21T14:51:13;3.10;;;2.30;;
61897;SDS011;47850;50.274;18.908;2022-08-21T14:53:39;3.00;;;2.30;;
61897;SDS011;47850;50.274;18.908;2022-08-21T14:56:06;3.30;;;2.10;;
61897;SDS011;47850;50.274;18.908;2022-08-21T14:58:38;3.50;;;2.40;;
61897;SDS011;47850;50.274;18.908;2022-08-21T15:01:07;6.80;;;2.80;;
61897;SDS011;47850;50.274;18.908;2022-08-21T15:03:36;5.30;;;2.60;;
61897;SDS011;47850;50.274;18.908;2022-08-21T15:06:04;4.20;;;2.50;;
61897;SDS011;47850;50.274;18.908;2022-08-21T15:08:32;3.40;;;2.50;;
61897;SDS011;47850;50.274;18.908;2022-08-21T15:11:00;4.00;;;2.40;;
61897;SDS011;47850;50.274;18.908;2022-08-21T15:13:28;3.60;;;2.60;;
61897;SDS011;47850;50.274;18.908;2022-08-21T15:15:57;5.30;;;2.90;;
61897;SDS011;47850;50.274;18.908;2022-08-21T15:18:24;5.10;;;3.20;;
61897;SDS011;47850;50.274;18.908;2022-08-21T15:20:53;6.50;;;2.80;;
61897;SDS011;47850;50.274;18.908;2022-08-21T15:23:20;4.70;;;2.90;;
61897;SDS011;47850;50.274;18.908;2022-08-21T15:25:47;2.70;;;2.30;;
61897;SDS011;47850;50.274;18.908;2022-08-21T15:28:15;3.90;;;2.70;;
61897;SDS011;47850;50.274;18.908;2022-08-21T15:30:43;4.10;;;2.90;;
61897;SDS011;47850;50.274;18.908;2022-08-21T15:33:11;3.20;;;2.50;;
61897;SDS011;47850;50.274;18.908;2022-08-21T15:35:37;3.70;;;2.80;;
61897;SDS011;47850;50.274;18.908;2022-08-21T15:38:05;3.30;;;3.00;;
61897;SDS011;47850;50.274;18.908;2022-08-21T15:40:33;4.50;;;2.80;;
61897;SDS011;47850;50.274;18.908;2022-08-21T15:43:02;3.60;;;2.80;;
61897;SDS011;47850;50.274;18.908;2022-08-21T15:45:30;4.50;;;3.10;;
61897;SDS011;47850;50.274;18.908;2022-08-21T15:47:58;4.80;;;2.90;;
61897;SDS011;47850;50.274;18.908;2022-08-21T15:50:25;5.10;;;2.60;;
61897;SDS011;47850;50.274;18.908;2022-08-21T15:52:52;4.00;;;2.90;;
61897;SDS011;47850;50.274;18.908;2022-08-21T15:55:19;5.00;;;2.80;;
61897;SDS011;47850;50.274;18.908;2022-08-21T15:57:47;4.40;;;2.70;;
61897;SDS011;47850;50.274;18.908;2022-08-21T16:00:16;5.30;;;3.00;;
61897;SDS011;47850;50.274;18.908;2022-08-21T16:02:47;4.00;;;3.00;;